El Paso, TX (88520)

4:39 AM MDT on October 31, 2014 (GMT -0600)
DOLPHIN | Change Station
CLOSE
Current Station
Personal Weather Station
Location: EL PASO, TX
Elevation: 3898 ft
Nearby Weather Stations

Elev 3898 ft 31.89 °N, 106.40 °W | Updated 1 second ago

Scattered Clouds
Scattered Clouds
57.6 °F
Feels Like 57.6 °F
N
0.0
Wind Variable Wind from North
Gusts 0.0 mph

Today
High -- | Low -- °F
--% Chance of Precip.
Yesterday
High -- | Low -- °F
Precip. -- in
7:21 AM 6:16 PM
First Quarter, 54% visible
Pressure 30.10 in
Visibility 10.0 miles
Clouds Scattered Clouds 25000 ft
Dew Point 44 °F
Humidity 60%
Rainfall 0.00 in
Snow Depth Not available.
UV 0 out of 12
Pollen 4.90 out of 12
Air Quality Not available.
Flu Activity Not available.
METAR KELP 310951Z 08006KT 10SM SCT250 15/08 A3027 RMK AO2 SLP191 T01500083

More Conditions Fewer Conditions

Pressure 30.10 in
Visibility 10.0 miles
Clouds Scattered Clouds 25000 ft
Dew Point 44 °F
Humidity 60%
Rainfall 0.00 in
Snow Depth Not available.
UV 0 out of 12
Pollen 4.90 out of 12
Air Quality Not available.
Flu Activity Not available.
METAR KELP 310951Z 08006KT 10SM SCT250 15/08 A3027 RMK AO2 SLP191 T01500083

More Conditions Fewer Conditions

10-Day Weather Forecast

Almanac

Astronomy

Oct. 31, 2014 Rise Set
Actual Time
Civil Twilight
Nautical Twilight
Astronomical Twilight
Moon
Length of Visible Light
Length of Day
Tomorrow will be .
, % of the Moon is Illuminated

Today's Extremes

State Highs State Lows

Community

WunderPhotos

Upload Photos

1,766,580 photos uploaded!

WunderBlogs® & News

Nearby

Air Quality

  Air Quality AQ Index Pollutant
Not available.

Snow Depth

Station Depth Elevation

Earthquake Activity

City Distance Mag. Time & Date
Minimum magnitude displayed is 2.5.

Coastal Water Temperatures

Place Temperature

Nearby Weather Stations